createdAt,value
2019-04-25T00:01:56.920Z,68.50
2019-04-25T00:04:25.684Z,68.30
2019-04-25T00:06:54.224Z,68.40
2019-04-25T00:09:23.336Z,68.30
2019-04-25T00:11:52.317Z,67.90
2019-04-25T00:14:22.607Z,68.00
2019-04-25T00:16:52.524Z,67.90
2019-04-25T00:19:21.878Z,67.50
2019-04-25T00:21:55.390Z,67.40
2019-04-25T00:24:32.083Z,67.30
2019-04-25T00:27:02.088Z,67.10
2019-04-25T00:29:31.893Z,66.50
2019-04-25T00:32:01.629Z,66.40
2019-04-25T00:34:31.648Z,66.40
2019-04-25T00:37:02.360Z,66.40
2019-04-25T00:39:31.941Z,66.40
2019-04-25T00:42:02.146Z,66.70
2019-04-25T00:44:31.940Z,66.70
2019-04-25T00:47:02.311Z,66.60
2019-04-25T00:49:32.236Z,67.10
2019-04-25T00:52:01.943Z,67.50
2019-04-25T00:54:31.349Z,67.70
2019-04-25T00:57:00.092Z,67.80
2019-04-25T00:59:35.933Z,67.80
2019-04-25T01:02:07.619Z,67.60
2019-04-25T01:04:36.167Z,67.40
2019-04-25T01:07:04.619Z,67.20
2019-04-25T01:09:33.078Z,67.00
2019-04-25T01:12:02.213Z,67.00
2019-04-25T01:14:33.623Z,67.10
2019-04-25T01:17:01.996Z,67.50
2019-04-25T01:19:30.535Z,66.90
2019-04-25T01:21:59.092Z,67.00
2019-04-25T01:24:27.644Z,66.80
2019-04-25T01:26:56.096Z,67.00
2019-04-25T01:29:24.733Z,67.20
2019-04-25T01:31:54.405Z,67.30
2019-04-25T01:34:25.822Z,67.70
2019-04-25T01:36:58.873Z,67.80
2019-04-25T01:39:31.965Z,67.90
2019-04-25T01:42:03.597Z,68.10
2019-04-25T01:44:34.124Z,68.10
2019-04-25T01:47:04.210Z,68.00
2019-04-25T01:49:33.968Z,68.00
2019-04-25T01:52:03.619Z,68.00
2019-04-25T01:54:33.827Z,67.70
2019-04-25T01:57:04.310Z,67.10
2019-04-25T01:59:33.803Z,67.00
2019-04-25T02:02:03.815Z,67.90
2019-04-25T02:04:34.118Z,68.00
2019-04-25T02:07:03.617Z,69.20
2019-04-25T02:09:33.727Z,69.40
2019-04-25T02:12:06.761Z,69.40
2019-04-25T02:14:35.200Z,69.70
2019-04-25T02:17:04.548Z,71.30
2019-04-25T02:19:34.304Z,70.50
2019-04-25T02:22:03.990Z,71.30
2019-04-25T02:24:33.858Z,71.60
2019-04-25T02:27:04.577Z,72.30
2019-04-25T02:29:33.297Z,72.20
2019-04-25T02:32:05.982Z,73.00
2019-04-25T02:34:34.534Z,73.70
2019-04-25T02:37:05.640Z,74.50
2019-04-25T02:39:36.783Z,75.10
2019-04-25T02:42:06.933Z,75.10
2019-04-25T02:44:34.862Z,75.20
2019-04-25T02:47:08.145Z,75.60
2019-04-25T02:49:45.516Z,75.30
2019-04-25T02:52:17.901Z,74.90
2019-04-25T02:54:45.759Z,73.60
2019-04-25T02:57:14.700Z,73.30
2019-04-25T02:59:45.122Z,73.40
2019-04-25T03:02:15.447Z,73.10
2019-04-25T03:04:44.576Z,73.20
2019-04-25T03:07:16.703Z,73.70
2019-04-25T03:09:45.110Z,74.20
2019-04-25T03:12:26.889Z,74.60
2019-04-25T03:14:44.771Z,75.00
2019-04-25T03:17:14.270Z,75.10
2019-04-25T03:19:50.834Z,75.30
2019-04-25T03:22:26.431Z,76.10
2019-04-25T03:24:54.927Z,76.30
2019-04-25T03:27:25.214Z,76.80
2019-04-25T03:29:54.242Z,77.00
2019-04-25T03:32:27.856Z,77.50
2019-04-25T03:34:54.711Z,77.70
2019-04-25T03:37:23.480Z,78.40
2019-04-25T03:39:53.451Z,78.90
2019-04-25T03:42:22.075Z,79.50
2019-04-25T03:44:50.536Z,79.90
2019-04-25T03:47:19.065Z,79.90
2019-04-25T03:49:47.572Z,79.80
2019-04-25T03:52:16.019Z,80.00
2019-04-25T03:54:44.486Z,80.00
2019-04-25T03:57:14.503Z,79.80
2019-04-25T03:59:43.682Z,80.10
2019-04-25T04:02:13.512Z,79.90
2019-04-25T04:04:43.487Z,79.90
2019-04-25T04:07:12.722Z,81.80
2019-04-25T04:09:43.546Z,81.20
2019-04-25T04:12:12.391Z,81.30
2019-04-25T04:14:40.940Z,81.00
2019-04-25T04:17:16.752Z,80.70
2019-04-25T04:19:46.826Z,80.60
2019-04-25T04:22:24.083Z,80.50
2019-04-25T04:24:54.307Z,80.70
2019-04-25T04:27:23.960Z,79.90
2019-04-25T04:29:54.144Z,80.20
2019-04-25T04:32:24.230Z,80.20
2019-04-25T04:34:53.720Z,80.50
2019-04-25T04:37:23.620Z,81.30
2019-04-25T04:39:53.658Z,81.60
2019-04-25T04:42:23.728Z,81.80
2019-04-25T04:44:53.486Z,82.30
2019-04-25T04:47:23.578Z,82.20
2019-04-25T04:49:53.847Z,82.80
2019-04-25T04:52:25.216Z,83.00
2019-04-25T04:55:03.743Z,82.80
2019-04-25T04:57:32.734Z,83.20
2019-04-25T04:59:53.657Z,83.40
2019-04-25T05:02:40.130Z,82.50
2019-04-25T05:05:17.154Z,77.20
2019-04-25T05:07:47.332Z,73.10
2019-04-25T05:10:18.370Z,71.40
2019-04-25T05:12:46.001Z,70.80
2019-04-25T05:15:16.220Z,64.50
2019-04-25T05:17:44.742Z,59.80
2019-04-25T05:20:15.134Z,56.20
2019-04-25T05:22:44.504Z,52.60
2019-04-25T05:25:15.285Z,50.00
2019-04-25T05:27:57.830Z,49.00
2019-04-25T05:30:17.089Z,47.50
2019-04-25T05:32:46.449Z,46.90
2019-04-25T05:35:15.447Z,45.30
2019-04-25T05:37:44.786Z,44.80
2019-04-25T05:40:16.139Z,44.30
2019-04-25T05:42:46.865Z,43.60
2019-04-25T05:45:18.502Z,43.00
2019-04-25T05:47:46.380Z,44.00
2019-04-25T05:50:15.642Z,43.40
2019-04-25T05:52:45.967Z,41.50
2019-04-25T05:55:17.304Z,42.60
2019-04-25T05:57:49.634Z,43.20
2019-04-25T06:00:17.487Z,41.80
2019-04-25T06:02:46.160Z,42.80
2019-04-25T06:05:15.143Z,41.90
2019-04-25T06:07:43.603Z,41.20
2019-04-25T06:10:23.950Z,41.10
2019-04-25T06:13:13.906Z,40.90
2019-04-25T06:15:44.297Z,41.10
2019-04-25T06:18:21.110Z,40.60
2019-04-25T06:20:49.975Z,39.30
2019-04-25T06:23:36.169Z,39.00
2019-04-25T06:26:19.272Z,37.50
2019-04-25T06:28:35.388Z,39.10
2019-04-25T06:31:04.465Z,38.70
2019-04-25T06:33:34.209Z,37.20
2019-04-25T06:36:04.146Z,36.00
2019-04-25T06:38:33.466Z,34.80
2019-04-25T06:41:03.512Z,35.00
2019-04-25T06:43:34.136Z,37.70
2019-04-25T06:46:21.050Z,39.70
2019-04-25T06:48:51.390Z,39.30
2019-04-25T06:51:22.531Z,37.50
2019-04-25T06:53:51.053Z,36.90
2019-04-25T06:56:19.497Z,38.00
2019-04-25T06:58:47.946Z,37.40
2019-04-25T07:01:16.377Z,35.90
2019-04-25T07:03:44.854Z,34.90
2019-04-25T07:06:14.728Z,33.90
2019-04-25T07:08:44.750Z,33.60
2019-04-25T07:11:13.991Z,32.90
2019-04-25T07:13:43.845Z,33.00
2019-04-25T07:16:13.370Z,32.80
2019-04-25T07:18:43.602Z,32.40
2019-04-25T07:21:12.207Z,30.50
2019-04-25T07:23:43.247Z,29.40
2019-04-25T07:26:14.761Z,28.70
2019-04-25T07:28:50.407Z,28.90
2019-04-25T07:31:23.321Z,29.00
2019-04-25T07:33:54.582Z,29.60
2019-04-25T07:36:23.305Z,29.30
2019-04-25T07:39:05.462Z,29.20
2019-04-25T07:41:22.165Z,29.60
2019-04-25T07:43:50.627Z,29.70
2019-04-25T07:46:19.138Z,28.20
2019-04-25T07:48:47.660Z,26.20
2019-04-25T07:51:16.615Z,26.00
2019-04-25T07:53:45.285Z,26.10
2019-04-25T07:56:14.305Z,24.60
2019-04-25T07:58:50.337Z,25.60
2019-04-25T08:01:14.932Z,25.80
2019-04-25T08:03:43.937Z,26.20
2019-04-25T08:06:13.731Z,25.60
2019-04-25T08:08:43.631Z,25.40
2019-04-25T08:11:14.012Z,25.60
2019-04-25T08:13:50.299Z,26.60
2019-04-25T08:16:20.378Z,27.30
2019-04-25T08:18:49.977Z,27.30
2019-04-25T08:21:18.592Z,27.60
2019-04-25T08:23:47.912Z,26.80
2019-04-25T08:26:16.412Z,25.50
2019-04-25T08:28:54.942Z,23.60
2019-04-25T08:31:15.066Z,24.80
2019-04-25T08:33:46.335Z,24.00
2019-04-25T08:36:13.810Z,22.90
2019-04-25T08:38:44.386Z,22.80
2019-04-25T08:41:14.047Z,23.10
2019-04-25T08:43:44.950Z,22.70
2019-04-25T08:46:14.019Z,22.00
2019-04-25T08:49:02.224Z,22.50
2019-04-25T08:51:33.930Z,22.70
2019-04-25T08:54:03.996Z,22.40
2019-04-25T08:56:35.171Z,22.40
2019-04-25T08:59:32.760Z,23.30
2019-04-25T09:01:54.667Z,23.90
2019-04-25T09:04:25.560Z,24.80
2019-04-25T09:06:54.249Z,24.60
2019-04-25T09:09:23.571Z,24.80
2019-04-25T09:11:52.223Z,24.30
2019-04-25T09:14:20.694Z,24.20
2019-04-25T09:16:49.146Z,24.50
2019-04-25T09:19:17.577Z,24.20
2019-04-25T09:21:49.355Z,23.60
2019-04-25T09:24:16.221Z,23.60
2019-04-25T09:26:45.395Z,24.80
2019-04-25T09:29:17.562Z,24.00
2019-04-25T09:31:45.183Z,23.30
2019-04-25T09:34:14.611Z,23.00
2019-04-25T09:36:43.944Z,22.80
2019-04-25T09:39:17.760Z,23.00
2019-04-25T09:41:46.243Z,22.70
2019-04-25T09:44:16.326Z,23.70
2019-04-25T09:46:46.865Z,23.00
2019-04-25T09:49:19.559Z,23.80
2019-04-25T09:51:53.462Z,24.60
2019-04-25T09:54:29.531Z,24.80
2019-04-25T09:57:05.626Z,24.80
2019-04-25T09:59:35.281Z,23.90
2019-04-25T10:02:05.417Z,23.90
2019-04-25T10:04:34.659Z,23.50
2019-04-25T10:07:03.522Z,24.10
2019-04-25T10:09:33.672Z,25.00
2019-04-25T10:12:02.329Z,25.90
2019-04-25T10:14:42.090Z,26.00
2019-04-25T10:17:10.525Z,26.30
2019-04-25T10:19:39.148Z,26.70
2019-04-25T10:22:07.959Z,26.40
2019-04-25T10:24:37.412Z,26.80
2019-04-25T10:27:06.770Z,26.70
2019-04-25T10:29:44.473Z,27.40
2019-04-25T10:32:06.210Z,27.50
2019-04-25T10:34:34.701Z,25.90
2019-04-25T10:37:03.427Z,26.20
2019-04-25T10:39:33.827Z,26.60
2019-04-25T10:42:03.604Z,26.80
2019-04-25T10:44:33.738Z,26.30
2019-04-25T10:47:02.590Z,25.90
2019-04-25T10:49:31.159Z,26.60
2019-04-25T10:51:59.614Z,27.10
2019-04-25T10:54:28.066Z,28.00
2019-04-25T10:56:56.681Z,28.50
2019-04-25T10:59:25.189Z,28.30
2019-04-25T11:01:55.083Z,27.70
2019-04-25T11:04:25.552Z,27.60
2019-04-25T11:06:55.193Z,27.50
2019-04-25T11:09:25.066Z,27.20
2019-04-25T11:11:53.638Z,26.80
2019-04-25T11:14:23.814Z,26.70
2019-04-25T11:16:54.973Z,28.00
2019-04-25T11:19:23.907Z,28.40
2019-04-25T11:21:53.837Z,28.50
2019-04-25T11:24:23.699Z,27.80
2019-04-25T11:26:54.271Z,27.60
2019-04-25T11:29:24.043Z,27.60
2019-04-25T11:31:53.410Z,28.00
2019-04-25T11:34:22.878Z,27.40
2019-04-25T11:36:51.540Z,28.80
2019-04-25T11:39:27.567Z,30.00
2019-04-25T11:41:56.073Z,30.00
2019-04-25T11:44:24.625Z,31.10
2019-04-25T11:46:53.138Z,31.10
2019-04-25T11:49:21.611Z,32.10
2019-04-25T11:51:50.282Z,33.00
2019-04-25T11:54:19.435Z,32.50
2019-04-25T11:56:48.632Z,33.80
2019-04-25T11:59:17.364Z,34.90
2019-04-25T12:01:47.549Z,33.70
2019-04-25T12:04:16.088Z,33.40
2019-04-25T12:06:46.032Z,33.50
2019-04-25T12:09:14.831Z,33.70
2019-04-25T12:11:45.457Z,33.50
2019-04-25T12:14:14.877Z,33.40
2019-04-25T12:16:46.159Z,32.90
2019-04-25T12:19:14.001Z,33.70
2019-04-25T12:21:43.711Z,32.90
2019-04-25T12:24:13.704Z,33.10
2019-04-25T12:26:45.125Z,31.50
2019-04-25T12:29:14.222Z,31.80
2019-04-25T12:31:44.226Z,31.80
2019-04-25T12:34:14.162Z,31.20
2019-04-25T12:36:44.353Z,31.00
2019-04-25T12:39:13.980Z,29.90
2019-04-25T12:41:45.543Z,30.50
2019-04-25T12:44:30.363Z,30.00
2019-04-25T12:47:00.459Z,29.60
2019-04-25T12:49:28.938Z,29.20
2019-04-25T12:51:57.437Z,29.80
2019-04-25T12:54:26.038Z,30.00
2019-04-25T12:56:54.503Z,29.80
2019-04-25T12:59:23.022Z,29.40
2019-04-25T13:01:53.643Z,29.30
2019-04-25T13:04:21.633Z,29.60
2019-04-25T13:06:50.549Z,29.70
2019-04-25T13:09:19.101Z,29.90
2019-04-25T13:11:47.547Z,30.00
2019-04-25T13:14:16.054Z,30.00
2019-04-25T13:16:44.497Z,30.00
2019-04-25T13:19:21.086Z,29.80
2019-04-25T13:21:43.334Z,30.00
2019-04-25T13:24:11.926Z,29.20
2019-04-25T13:26:43.501Z,29.90
2019-04-25T13:29:29.873Z,29.90
2019-04-25T13:32:11.787Z,30.00
2019-04-25T13:34:41.870Z,30.00
2019-04-25T13:37:10.506Z,30.00
2019-04-25T13:39:38.956Z,30.10
2019-04-25T13:42:08.051Z,30.10
2019-04-25T13:44:36.489Z,29.90
2019-04-25T13:47:05.742Z,29.80
2019-04-25T13:49:34.237Z,29.40
2019-04-25T13:52:04.430Z,29.20
2019-04-25T13:54:33.833Z,29.10
2019-04-25T13:57:03.330Z,29.50
2019-04-25T13:59:32.634Z,29.60
2019-04-25T14:02:04.085Z,29.90
2019-04-25T14:04:34.380Z,29.10
2019-04-25T14:07:03.430Z,29.50
2019-04-25T14:09:32.229Z,29.70
2019-04-25T14:12:00.776Z,30.00
2019-04-25T14:14:30.224Z,29.40
2019-04-25T14:17:06.664Z,29.00
2019-04-25T14:19:44.328Z,29.50
2019-04-25T14:22:12.941Z,28.90
2019-04-25T14:24:41.378Z,28.60
2019-04-25T14:27:11.530Z,27.90
2019-04-25T14:29:40.021Z,28.50
2019-04-25T14:32:09.911Z,28.80
2019-04-25T14:34:38.396Z,28.80
2019-04-25T14:37:06.905Z,28.40
2019-04-25T14:39:36.012Z,28.40
2019-04-25T14:42:04.626Z,28.10
2019-04-25T14:44:33.564Z,28.20
2019-04-25T14:47:02.099Z,28.00
2019-04-25T14:49:32.758Z,27.60
2019-04-25T14:52:02.031Z,28.00
2019-04-25T14:54:36.064Z,28.00
2019-04-25T14:57:06.639Z,27.70
2019-04-25T14:59:35.103Z,27.90
2019-04-25T15:02:03.711Z,28.00
2019-04-25T15:04:33.116Z,27.90
2019-04-25T15:07:01.694Z,28.30
2019-04-25T15:09:30.407Z,28.20
2019-04-25T15:11:58.890Z,28.00
2019-04-25T15:14:27.356Z,28.00
2019-04-25T15:16:55.948Z,27.70
2019-04-25T15:19:25.429Z,27.60
2019-04-25T15:21:53.964Z,28.10
2019-04-25T15:24:22.998Z,28.20
2019-04-25T15:26:52.539Z,28.40
2019-04-25T15:29:20.984Z,28.00
2019-04-25T15:31:55.721Z,28.40
2019-04-25T15:34:19.742Z,28.20
2019-04-25T15:37:02.262Z,28.20
2019-04-25T15:39:41.506Z,28.40
2019-04-25T15:42:11.685Z,29.00
2019-04-25T15:44:58.323Z,28.80
2019-04-25T15:47:28.479Z,28.80
2019-04-25T15:49:56.973Z,28.80
2019-04-25T15:52:26.657Z,28.60
2019-04-25T15:55:06.921Z,28.90
2019-04-25T15:57:28.317Z,29.50
2019-04-25T15:59:57.539Z,29.90
2019-04-25T16:02:25.996Z,30.00
2019-04-25T16:04:54.472Z,30.40
2019-04-25T16:07:23.640Z,30.00
2019-04-25T16:09:52.109Z,30.00
2019-04-25T16:12:20.634Z,30.00
2019-04-25T16:14:49.163Z,29.90
2019-04-25T16:17:17.611Z,29.80
2019-04-25T16:19:46.247Z,30.20
2019-04-25T16:22:14.772Z,30.30
2019-04-25T16:24:43.341Z,30.10
2019-04-25T16:27:11.862Z,30.10
2019-04-25T16:29:40.371Z,29.80
2019-04-25T16:32:19.938Z,30.20
2019-04-25T16:34:40.712Z,29.90
2019-04-25T16:37:09.389Z,30.00
2019-04-25T16:39:38.300Z,30.30
2019-04-25T16:42:07.026Z,31.60
2019-04-25T16:44:55.769Z,31.60
2019-04-25T16:47:31.144Z,32.00
2019-04-25T16:50:01.725Z,32.20
2019-04-25T16:52:36.229Z,32.30
2019-04-25T16:55:06.706Z,32.50
2019-04-25T16:57:35.170Z,32.40
2019-04-25T17:00:09.596Z,32.30
2019-04-25T17:02:40.864Z,33.80
2019-04-25T17:05:09.926Z,32.90
2019-04-25T17:07:38.500Z,32.50
2019-04-25T17:10:07.670Z,33.60
2019-04-25T17:12:36.497Z,32.50
2019-04-25T17:15:25.255Z,32.50
2019-04-25T17:18:13.835Z,33.30
2019-04-25T17:20:52.002Z,33.30
2019-04-25T17:23:20.451Z,33.80
2019-04-25T17:25:48.922Z,34.00
2019-04-25T17:28:17.820Z,34.40
2019-04-25T17:30:47.910Z,34.70
2019-04-25T17:33:21.084Z,34.50
2019-04-25T17:35:51.168Z,34.70
2019-04-25T17:38:24.029Z,35.00
2019-04-25T17:40:52.466Z,35.10
2019-04-25T17:43:21.057Z,35.40
2019-04-25T17:45:49.547Z,35.80
2019-04-25T17:48:18.076Z,36.30
2019-04-25T17:50:46.600Z,36.90
2019-04-25T17:53:15.067Z,37.40
2019-04-25T17:55:43.735Z,37.70
2019-04-25T17:58:12.366Z,38.70
2019-04-25T18:00:42.630Z,38.60
2019-04-25T18:03:11.271Z,38.80
2019-04-25T18:05:44.015Z,38.80
2019-04-25T18:08:12.511Z,39.10
2019-04-25T18:10:41.921Z,39.60
2019-04-25T18:13:10.568Z,39.90
2019-04-25T18:15:43.867Z,40.10
2019-04-25T18:18:14.168Z,40.40
2019-04-25T18:20:46.647Z,40.70
2019-04-25T18:23:16.817Z,41.10
2019-04-25T18:25:55.605Z,41.20
2019-04-25T18:28:41.551Z,41.50
2019-04-25T18:31:10.665Z,41.70
2019-04-25T18:33:39.379Z,41.80
2019-04-25T18:36:09.575Z,42.30
2019-04-25T18:38:39.715Z,43.00
2019-04-25T18:41:09.872Z,43.30
2019-04-25T18:43:49.082Z,43.90
2019-04-25T18:46:28.249Z,44.30
2019-04-25T18:49:00.735Z,44.40
2019-04-25T18:51:32.107Z,44.70
2019-04-25T18:54:17.213Z,44.80
2019-04-25T18:56:53.094Z,45.30
2019-04-25T18:59:39.578Z,45.50
2019-04-25T19:02:27.907Z,45.00
2019-04-25T19:04:59.647Z,45.30
2019-04-25T19:07:30.069Z,45.20
2019-04-25T19:09:58.593Z,45.40
2019-04-25T19:12:28.824Z,45.30
2019-04-25T19:15:00.464Z,45.60
2019-04-25T19:17:28.988Z,45.60
2019-04-25T19:19:57.505Z,46.10
2019-04-25T19:22:29.026Z,45.90
2019-04-25T19:25:00.841Z,46.10
2019-04-25T19:27:29.358Z,46.30
2019-04-25T19:29:57.991Z,46.40
2019-04-25T19:32:28.240Z,46.90
2019-04-25T19:35:00.958Z,47.20
2019-04-25T19:37:29.666Z,48.10
2019-04-25T19:40:03.968Z,48.90
2019-04-25T19:42:36.948Z,49.40
2019-04-25T19:45:08.726Z,49.90
2019-04-25T19:47:37.303Z,50.40
2019-04-25T19:50:06.120Z,50.90
2019-04-25T19:52:34.553Z,51.40
2019-04-25T19:55:02.998Z,51.90
2019-04-25T19:57:31.460Z,52.90
2019-04-25T19:59:59.896Z,53.40
2019-04-25T20:02:42.967Z,54.50
2019-04-25T20:05:31.834Z,54.10
2019-04-25T20:08:04.797Z,54.30
2019-04-25T20:10:37.973Z,55.40
2019-04-25T20:13:06.437Z,55.50
2019-04-25T20:15:34.988Z,55.70
2019-04-25T20:18:03.453Z,56.20
2019-04-25T20:20:31.943Z,56.60
2019-04-25T20:23:00.419Z,56.70
2019-04-25T20:25:28.987Z,56.80
2019-04-25T20:27:57.450Z,56.40
2019-04-25T20:30:25.894Z,56.70
2019-04-25T20:32:54.447Z,56.80
2019-04-25T20:35:22.904Z,57.10
2019-04-25T20:37:51.353Z,57.90
2019-04-25T20:40:19.877Z,58.20
2019-04-25T20:42:48.446Z,57.50
2019-04-25T20:45:17.320Z,57.80
2019-04-25T20:47:46.571Z,58.00
2019-04-25T20:50:15.203Z,58.00
2019-04-25T20:52:50.623Z,58.00
2019-04-25T20:55:19.360Z,57.80
2019-04-25T20:57:48.413Z,57.70
2019-04-25T21:00:29.899Z,57.60
2019-04-25T21:02:58.365Z,57.20
2019-04-25T21:05:26.808Z,56.90
2019-04-25T21:07:55.410Z,56.90
2019-04-25T21:10:23.885Z,56.30
2019-04-25T21:12:52.338Z,56.10
2019-04-25T21:15:31.625Z,55.30
2019-04-25T21:18:01.708Z,55.30
2019-04-25T21:20:30.156Z,54.60
2019-04-25T21:22:58.602Z,54.40
2019-04-25T21:25:27.032Z,54.00
2019-04-25T21:27:56.391Z,53.80
2019-04-25T21:30:25.026Z,53.50
2019-04-25T21:32:55.511Z,53.30
2019-04-25T21:35:24.812Z,53.10
2019-04-25T21:37:53.574Z,52.90
2019-04-25T21:40:29.879Z,53.00
2019-04-25T21:43:09.174Z,53.00
2019-04-25T21:45:38.116Z,53.00
2019-04-25T21:48:06.856Z,53.20
2019-04-25T21:50:35.759Z,53.10
2019-04-25T21:53:04.782Z,53.30
2019-04-25T21:55:33.530Z,53.30
2019-04-25T21:58:02.433Z,53.50
2019-04-25T22:00:51.535Z,53.80
2019-04-25T22:03:22.414Z,53.90
2019-04-25T22:05:51.226Z,54.20
2019-04-25T22:08:19.738Z,54.60
2019-04-25T22:10:48.226Z,54.50
2019-04-25T22:13:16.836Z,54.90
2019-04-25T22:15:46.409Z,55.10
2019-04-25T22:18:15.104Z,55.30
2019-04-25T22:20:43.663Z,55.50
2019-04-25T22:23:12.562Z,55.80
2019-04-25T22:25:41.389Z,56.10
2019-04-25T22:28:10.118Z,56.30
2019-04-25T22:30:40.326Z,56.50
2019-04-25T22:33:13.109Z,57.00
2019-04-25T22:35:43.222Z,57.20
2019-04-25T22:38:11.857Z,57.40
2019-04-25T22:40:40.422Z,57.80
2019-04-25T22:43:09.138Z,59.00
2019-04-25T22:45:37.969Z,58.90
2019-04-25T22:48:06.707Z,59.30
2019-04-25T22:50:35.978Z,59.60
2019-04-25T22:53:04.625Z,59.90
2019-04-25T22:55:33.605Z,60.60
2019-04-25T22:58:02.776Z,61.30
2019-04-25T23:00:33.987Z,61.30
2019-04-25T23:03:05.227Z,61.60
2019-04-25T23:05:35.870Z,61.90
2019-04-25T23:08:05.681Z,62.40
2019-04-25T23:10:34.560Z,62.60
2019-04-25T23:13:03.341Z,63.40
2019-04-25T23:15:31.936Z,63.10
2019-04-25T23:18:00.554Z,63.70
2019-04-25T23:20:29.027Z,63.90
2019-04-25T23:22:57.482Z,64.00
2019-04-25T23:25:27.665Z,64.50
2019-04-25T23:28:00.830Z,64.50
2019-04-25T23:30:31.204Z,64.80
2019-04-25T23:32:59.667Z,65.10
2019-04-25T23:35:32.249Z,65.20
2019-04-25T23:37:58.403Z,65.50
2019-04-25T23:40:26.849Z,65.70
2019-04-25T23:42:55.578Z,65.80
2019-04-25T23:45:24.027Z,65.90
2019-04-25T23:47:52.508Z,66.30
2019-04-25T23:50:21.308Z,66.30
2019-04-25T23:52:49.832Z,66.90
2019-04-25T23:55:18.673Z,66.70
2019-04-25T23:57:47.149Z,67.10
